Terminal Aerodrome Forecast
Issued by NWS

Home | Current Version | Previous Version | Text Only | Print | Product List | Glossary On
Versions: 1 2 3 4 5 6 7 8 9 10 11 12 13 14 15 16 17 18 19 20
000
FTUS41 KAKQ 180613 AAA
TAFPHF
TAF AMD
KPHF 180613Z 1806/1906 20008KT P6SM SCT012
      TEMPO 1806/1808 BKN012
     FM180800 20007KT P6SM SCT007 BKN012
     FM181200 20005KT P6SM BKN020
     FM181330 20008KT P6SM BKN030
     FM181700 20012KT P6SM BKN120
     FM182200 20011KT P6SM BKN100=

USA.gov is the U.S. government's official web portal to all federal, state and local government web resources and services.